Martine P — 2FIL4 — position and weather

sailwx.info

Track history (hours):
 
Tides and Currents Weather Stations Pressure Air Temp Water Temp Dewpoint Dewpoint Depression Visibility Wind Speed Wind Dir Waves Ship Positions

Martine P

Last reported at 2016-May-25 02:32 UTC. Time now 2016-May-25 03:24 UTC.
Position N 53°29' W 003°22'.

Length 27 m; draft 3 m.

Type: Tug. MMSI: 235091541.

Date/timePositionNaut miles runAvg speedWind from/ knotsBaromVisibWave heightAir tempDewpointWater temp
2016-May-25 02:32N 53°29' W 003°22'0 0.0
2016-May-25 01:29N 53°29' W 003°22'0 0.0
2016-May-25 00:29N 53°29' W 003°22'0 0.0
2016-May-24 23:29N 53°29' W 003°22'0 0.0
2016-May-24 22:32N 53°29' W 003°22'0 0.0
2016-May-24 21:32N 53°29' W 003°22'0 0.0
2016-May-24 20:32N 53°29' W 003°22'0 0.0
2016-May-24 19:32N 53°29' W 003°22'0 0.0
2016-May-24 18:32N 53°29' W 003°22'0 0.0
2016-May-24 17:33N 53°29' W 003°22'0 0.0
2016-May-24 16:33N 53°29' W 003°22'0 0.0
2016-May-24 15:33N 53°29' W 003°22'0 0.0
2016-May-24 14:34N 53°29' W 003°22'0 0.0
2016-May-24 13:33N 53°29' W 003°22'0 0.0
2016-May-24 12:34N 53°29' W 003°22'0 0.0
2016-May-24 11:33N 53°29' W 003°22'0 0.2
2016-May-24 10:33N 53°29' W 003°22'0 0.2
2016-May-24 09:31N 53°29' W 003°22'0 0.0
2016-May-24 08:31N 53°29' W 003°22'0 0.0
2016-May-24 07:31N 53°29' W 003°22'0 0.0
2016-May-24 06:31N 53°29' W 003°22'0 0.0
2016-May-24 05:31N 53°29' W 003°22'0 0.0
2016-May-24 04:31N 53°29' W 003°22'0 0.0
2016-May-24 03:31N 53°29' W 003°22'0 0.0
2016-May-24 02:31N 53°29' W 003°22'0 0.0
2016-May-24 01:31N 53°29' W 003°22'0 0.0
2016-May-24 00:31N 53°29' W 003°22'0 0.0
2016-May-23 23:31N 53°29' W 003°22'0 0.0
2016-May-23 22:31N 53°29' W 003°22'0 0.0
2016-May-23 21:31N 53°29' W 003°22'0 0.0
2016-May-23 20:31N 53°29' W 003°22'0 0.0
2016-May-23 19:31N 53°29' W 003°22'0 0.0
2016-May-23 18:31N 53°29' W 003°22'0 0.1
2016-May-23 17:31N 53°29' W 003°22'0 0.0
2016-May-23 16:31N 53°29' W 003°22'0 0.0
2016-May-23 15:31N 53°29' W 003°22'0 0.0
2016-May-23 14:28N 53°29' W 003°22'0 0.0
2016-May-23 13:31N 53°29' W 003°22'0 0.1
2016-May-23 12:31N 53°29' W 003°22'0 0.0
2016-May-23 11:28N 53°29' W 003°22'0 0.0
2016-May-23 10:31N 53°29' W 003°22'0 0.0
2016-May-23 09:31N 53°29' W 003°22'0 0.0
2016-May-23 08:31N 53°29' W 003°22'0 0.0
2016-May-23 07:31N 53°29' W 003°22'0 0.0
2016-May-23 06:31N 53°28' W 003°22'0 0.0
2016-May-23 05:28N 53°28' W 003°22'0 0.1
2016-May-23 04:31N 53°29' W 003°22'0 0.0
2016-May-23 03:28N 53°29' W 003°22'0 0.0
2016-May-23 02:34N 53°29' W 003°22'0 0.0
2016-May-23 01:31N 53°29' W 003°22'0 0.0
2016-May-23 00:31N 53°29' W 003°22'0 0.0
2016-May-22 23:28N 53°29' W 003°22'3 2.9
2016-May-22 22:33N 53°31' W 003°21'7 7.3
2016-May-22 21:33N 53°32' W 003°08'6 6.3
2016-May-22 20:33N 53°27' W 003°02'1 0.9
2016-May-22 19:33N 53°26' W 003°01'1 0.6
2016-May-22 18:33N 53°26' W 003°00'0 0.0
2016-May-22 17:33N 53°26' W 003°00'0 0.0
2016-May-22 16:33N 53°26' W 003°00'1 0.6
2016-May-22 15:33N 53°26' W 003°01'2 2.0
2016-May-22 14:33N 53°24' W 003°00'2 1.9
2016-May-22 13:33N 53°26' W 003°01'4 4.4
2016-May-22 12:33N 53°30' W 003°05'7 7.1
2016-May-22 11:33N 53°31' W 003°17'4 4.1
2016-May-22 10:33N 53°29' W 003°22'0 0.0
2016-May-22 09:33N 53°29' W 003°22'0 0.0
2016-May-22 08:33N 53°29' W 003°22'0 0.0
2016-May-22 07:33N 53°29' W 003°22'0 0.3
2016-May-22 06:31N 53°29' W 003°22'0 0.0
2016-May-22 05:28N 53°29' W 003°22'0 0.1
2016-May-22 04:31N 53°29' W 003°22'0 0.0
2016-May-22 03:31N 53°29' W 003°22'0 0.0
2016-May-22 02:31N 53°29' W 003°22'0 0.0
2016-May-22 01:31N 53°29' W 003°22'0 0.0
2016-May-22 00:31N 53°29' W 003°22'0 0.0
2016-May-21 23:28N 53°29' W 003°22'0 0.0
2016-May-21 22:28N 53°29' W 003°22'0 0.0
2016-May-21 21:28N 53°29' W 003°22'0 0.0
2016-May-21 20:31N 53°29' W 003°22'0 0.0
2016-May-21 19:31N 53°29' W 003°22'2 1.7
2016-May-21 18:33N 53°30' W 003°22'7 6.8
2016-May-21 17:33N 53°32' W 003°11'8 7.6
2016-May-21 16:33N 53°27' W 003°01'0 0.2
2016-May-21 15:33N 53°27' W 003°01'1 1.1
2016-May-21 14:33N 53°26' W 003°00'0 0.0
2016-May-21 13:33N 53°26' W 003°00'0 0.0
2016-May-21 12:33N 53°26' W 003°00'0 0.0
2016-May-21 11:33N 53°26' W 003°00'0 0.0
2016-May-21 10:33N 53°26' W 003°00'0 0.1
2016-May-21 09:33N 53°26' W 003°00'0 0.0
2016-May-21 08:33N 53°26' W 003°00'0 0.0
2016-May-21 07:33N 53°26' W 003°00'0 0.0
2016-May-21 06:33N 53°26' W 003°00'0 0.0
2016-May-21 05:33N 53°26' W 003°00'0 0.0
2016-May-21 04:33N 53°26' W 003°00'0 0.0
2016-May-21 03:33N 53°26' W 003°00'0 0.0
2016-May-21 02:33N 53°26' W 003°00'0 0.0
2016-May-21 01:33N 53°26' W 003°00'0 0.0
2016-May-21 00:33N 53°26' W 003°00'0 0.0
2016-May-20 23:33N 53°26' W 003°00'0 0.0
2016-May-20 22:33N 53°26' W 003°00'0 0.0
2016-May-20 21:33N 53°26' W 003°00'0 0.0
2016-May-20 20:33N 53°26' W 003°00'1 0.6
2016-May-20 19:33N 53°26' W 003°00'1 0.7
2016-May-20 18:33N 53°26' W 003°01'1 1.3
2016-May-20 17:33N 53°24' W 003°00'0 0.0
2016-May-20 16:33N 53°24' W 003°00'0 0.0
2016-May-20 15:33N 53°24' W 003°00'5 5.1
2016-May-20 14:33N 53°29' W 003°05'5 5.4
2016-May-20 13:33N 53°31' W 003°13'6 6.0
2016-May-20 12:33N 53°29' W 003°22'1 0.8
2016-May-20 11:31N 53°29' W 003°22'0 0.0
2016-May-20 10:31N 53°29' W 003°22'0 0.0
2016-May-20 09:31N 53°29' W 003°22'0 0.0
2016-May-20 08:31N 53°29' W 003°22'0 0.0
2016-May-20 07:31N 53°29' W 003°22'0 0.0
2016-May-20 06:31N 53°29' W 003°22'0 0.0
2016-May-20 05:31N 53°29' W 003°22'0 0.0
2016-May-20 04:31N 53°29' W 003°22'0 0.0
2016-May-20 03:31N 53°29' W 003°22'0 0.0
2016-May-20 02:31N 53°29' W 003°22'0 0.0
2016-May-20 01:31N 53°29' W 003°22'0 0.0
2016-May-20 00:31N 53°29' W 003°22'0 0.0
2016-May-19 23:31N 53°29' W 003°22'0 0.0
2016-May-19 22:28N 53°29' W 003°22'0 0.0
2016-May-19 21:28N 53°29' W 003°22'0 0.0
2016-May-19 20:28N 53°29' W 003°22'0 0.0
2016-May-19 19:31N 53°29' W 003°22'0 0.0
2016-May-19 18:34N 53°29' W 003°22'0 0.3
2016-May-19 17:33N 53°29' W 003°22'0 0.0
2016-May-19 16:33N 53°29' W 003°22'0 0.0
2016-May-19 15:33N 53°29' W 003°22'0 0.0
2016-May-19 14:33N 53°29' W 003°22'0 0.0
2016-May-19 13:33N 53°29' W 003°22'2 2.1
2016-May-19 12:33N 53°30' W 003°20'8 8.0
2016-May-19 11:33N 53°31' W 003°07'8 7.4
2016-May-19 10:31N 53°24' W 003°00'0 0.0
2016-May-19 09:31N 53°24' W 003°00'1 1.4
2016-May-19 08:33N 53°23' W 003°00'0 0.1
2016-May-19 07:31N 53°23' W 003°01'0 0.0
2016-May-19 06:31N 53°23' W 003°01'0 0.0
2016-May-19 05:31N 53°23' W 003°01'0 0.0
2016-May-19 04:31N 53°23' W 003°01'0 0.0
2016-May-19 03:31N 53°23' W 003°01'0 0.0
2016-May-19 02:25N 53°23' W 003°01'0 0.0
2016-May-19 01:31N 53°23' W 003°01'0 0.0
2016-May-19 00:31N 53°23' W 003°01'0 0.0
2016-May-18 23:31N 53°23' W 003°01'0 0.0
2016-May-18 22:25N 53°23' W 003°01'0 0.0
2016-May-18 21:31N 53°23' W 003°01'0 0.0
2016-May-18 20:28N 53°23' W 003°01'0 0.0
2016-May-18 19:22N 53°23' W 003°01'0 0.0
2016-May-18 18:31N 53°23' W 003°01'0 0.0
2016-May-18 17:28N 53°23' W 003°01'0 0.0
2016-May-18 16:31N 53°23' W 003°01'0 0.0
2016-May-18 15:31N 53°23' W 003°01'0 0.0
2016-May-18 14:28N 53°23' W 003°01'0 0.0
2016-May-18 13:31N 53°23' W 003°01'0 0.0
2016-May-18 12:31N 53°23' W 003°01'0 0.0
2016-May-18 11:31N 53°23' W 003°01'0 0.0
2016-May-18 10:31N 53°23' W 003°01'0 0.0
2016-May-18 09:28N 53°23' W 003°01'0 0.0
2016-May-18 08:31N 53°23' W 003°01'0 0.0
2016-May-18 07:31N 53°23' W 003°01'0 0.0
2016-May-18 06:31N 53°23' W 003°01'0 0.0
2016-May-18 05:31N 53°23' W 003°01'0 0.0
2016-May-18 04:31N 53°23' W 003°01'0 0.0
2016-May-18 03:31N 53°23' W 003°01'0 0.0
2016-May-18 02:31N 53°23' W 003°01'0 0.0
2016-May-18 01:31N 53°23' W 003°01'0 0.0
2016-May-18 00:22N 53°23' W 003°01'0 0.0
2016-May-17 23:28N 53°23' W 003°01'0 0.0
2016-May-17 22:31N 53°23' W 003°01'0 0.0
2016-May-17 21:28N 53°23' W 003°01'0 0.0
2016-May-17 20:28N 53°23' W 003°01'0 0.0
2016-May-17 19:28N 53°23' W 003°01'0 0.0
2016-May-17 18:31N 53°23' W 003°01'0 0.0
2016-May-17 17:31N 53°23' W 003°01'0 0.0
2016-May-17 16:31N 53°23' W 003°01'0 0.1
2016-May-17 15:31N 53°23' W 003°00'0 0.0
2016-May-17 14:31N 53°23' W 003°00'0 0.0
2016-May-17 13:34N 53°23' W 003°00'0 0.0
2016-May-17 12:34N 53°23' W 003°00'0 0.0
2016-May-17 11:34N 53°23' W 003°00'0 0.0
2016-May-17 10:33N 53°23' W 003°00'0 0.0
2016-May-17 09:33N 53°23' W 003°00'0 0.0
2016-May-17 08:33N 53°23' W 003°00'0 0.0
2016-May-17 07:33N 53°23' W 003°00'0 0.0
2016-May-17 06:31N 53°23' W 003°00'0 0.0
2016-May-17 05:24N 53°23' W 003°00'0 0.0
2016-May-17 04:34N 53°23' W 003°00'0 0.0
2016-May-17 03:31N 53°23' W 003°00'0 0.0
2016-May-17 02:30N 53°23' W 003°00'0 0.0
2016-May-17 01:33N 53°23' W 003°01'0 0.0
2016-May-17 00:33N 53°23' W 003°00'0 0.0
2016-May-16 23:30N 53°23' W 003°00'0 0.0
2016-May-16 22:33N 53°23' W 003°00'0 0.0
2016-May-16 21:33N 53°23' W 003°00'0 0.0
2016-May-16 20:33N 53°23' W 003°00'0 0.0
2016-May-16 19:18N 53°23' W 003°00'0 0.0
2016-May-16 18:33N 53°23' W 003°00'0 0.0
2016-May-16 17:30N 53°23' W 003°00'0 0.0
2016-May-16 16:33N 53°23' W 003°00'0 0.0
2016-May-16 15:33N 53°23' W 003°00'0 0.0
2016-May-16 14:33N 53°23' W 003°00'0 0.0
2016-May-16 13:33N 53°23' W 003°00'0 0.0
2016-May-16 12:33N 53°23' W 003°00'0 0.0
2016-May-16 11:33N 53°23' W 003°00'0 0.0
2016-May-16 10:33N 53°23' W 003°00'0 0.0
2016-May-16 09:33N 53°23' W 003°00'0 0.0
2016-May-16 08:33N 53°23' W 003°00'0 0.0
2016-May-16 07:30N 53°23' W 003°00'0 0.0
2016-May-16 06:30N 53°23' W 003°00'0 0.0
2016-May-16 05:27N 53°23' W 003°00'0 0.0
2016-May-16 04:33N 53°23' W 003°00'0 0.0
2016-May-16 03:33N 53°23' W 003°00'0 0.0
2016-May-16 02:33N 53°23' W 003°00'0 0.0
2016-May-16 01:33N 53°23' W 003°00'0 0.0
2016-May-16 00:30N 53°23' W 003°00'0 0.0
2016-May-15 23:33N 53°23' W 003°00'0 0.0
2016-May-15 22:33N 53°23' W 003°00'0 0.0
2016-May-15 21:33N 53°23' W 003°00'0 0.0
2016-May-15 20:30N 53°23' W 003°00'0 0.0
2016-May-15 19:33N 53°23' W 003°00'0 0.0
2016-May-15 18:33N 53°23' W 003°00'0 0.0
2016-May-15 17:33N 53°23' W 003°00'0 0.0
2016-May-15 16:33N 53°23' W 003°00'0 0.0
2016-May-15 15:33N 53°23' W 003°00'0 0.0
2016-May-15 14:33N 53°23' W 003°00'0 0.0
2016-May-15 13:33N 53°23' W 003°00'0 0.0
2016-May-15 12:33N 53°23' W 003°00'0 0.0
2016-May-15 11:33N 53°23' W 003°00'0 0.0
2016-May-15 10:33N 53°23' W 003°00'0 0.0
2016-May-15 09:33N 53°23' W 003°00'0 0.0
2016-May-15 08:33N 53°23' W 003°00'0 0.0
2016-May-15 07:34N 53°23' W 003°00'0 0.0
2016-May-15 06:33N 53°23' W 003°00'0 0.0
2016-May-15 05:33N 53°23' W 003°00'0 0.0
2016-May-15 04:34N 53°23' W 003°00'0 0.0
2016-May-15 03:33N 53°23' W 003°00'0 0.0
2016-May-15 02:33N 53°23' W 003°01'  
Track history (hours):
 
Tides and Currents Weather Stations Pressure Air Temp Water Temp Dewpoint Dewpoint Depression Visibility Wind Speed Wind Dir Waves Ship Positions

Martine P

Last reported at 2016-May-25 02:32 UTC. Time now 2016-May-25 03:24 UTC.
Position N 53°29' W 003°22'.

Length 27 m; draft 3 m.

Type: Tug. MMSI: 235091541.

Date/timePositionNaut miles runAvg speedWind from/ knotsBaromVisibWave heightAir tempDewpointWater temp
2016-May-25 02:32N 53°29' W 003°22'0 0.0
2016-May-25 01:29N 53°29' W 003°22'0 0.0
2016-May-25 00:29N 53°29' W 003°22'0 0.0
2016-May-24 23:29N 53°29' W 003°22'0 0.0
2016-May-24 22:32N 53°29' W 003°22'0 0.0
2016-May-24 21:32N 53°29' W 003°22'0 0.0
2016-May-24 20:32N 53°29' W 003°22'0 0.0
2016-May-24 19:32N 53°29' W 003°22'0 0.0
2016-May-24 18:32N 53°29' W 003°22'0 0.0
2016-May-24 17:33N 53°29' W 003°22'0 0.0
2016-May-24 16:33N 53°29' W 003°22'0 0.0
2016-May-24 15:33N 53°29' W 003°22'0 0.0
2016-May-24 14:34N 53°29' W 003°22'0 0.0
2016-May-24 13:33N 53°29' W 003°22'0 0.0
2016-May-24 12:34N 53°29' W 003°22'0 0.0
2016-May-24 11:33N 53°29' W 003°22'0 0.2
2016-May-24 10:33N 53°29' W 003°22'0 0.2
2016-May-24 09:31N 53°29' W 003°22'0 0.0
2016-May-24 08:31N 53°29' W 003°22'0 0.0
2016-May-24 07:31N 53°29' W 003°22'0 0.0
2016-May-24 06:31N 53°29' W 003°22'0 0.0
2016-May-24 05:31N 53°29' W 003°22'0 0.0
2016-May-24 04:31N 53°29' W 003°22'0 0.0
2016-May-24 03:31N 53°29' W 003°22'0 0.0
2016-May-24 02:31N 53°29' W 003°22'0 0.0
2016-May-24 01:31N 53°29' W 003°22'0 0.0
2016-May-24 00:31N 53°29' W 003°22'0 0.0
2016-May-23 23:31N 53°29' W 003°22'0 0.0
2016-May-23 22:31N 53°29' W 003°22'0 0.0
2016-May-23 21:31N 53°29' W 003°22'0 0.0
2016-May-23 20:31N 53°29' W 003°22'0 0.0
2016-May-23 19:31N 53°29' W 003°22'0 0.0
2016-May-23 18:31N 53°29' W 003°22'0 0.1
2016-May-23 17:31N 53°29' W 003°22'0 0.0
2016-May-23 16:31N 53°29' W 003°22'0 0.0
2016-May-23 15:31N 53°29' W 003°22'0 0.0
2016-May-23 14:28N 53°29' W 003°22'0 0.0
2016-May-23 13:31N 53°29' W 003°22'0 0.1
2016-May-23 12:31N 53°29' W 003°22'0 0.0
2016-May-23 11:28N 53°29' W 003°22'0 0.0
2016-May-23 10:31N 53°29' W 003°22'0 0.0
2016-May-23 09:31N 53°29' W 003°22'0 0.0
2016-May-23 08:31N 53°29' W 003°22'0 0.0
2016-May-23 07:31N 53°29' W 003°22'0 0.0
2016-May-23 06:31N 53°28' W 003°22'0 0.0
2016-May-23 05:28N 53°28' W 003°22'0 0.1
2016-May-23 04:31N 53°29' W 003°22'0 0.0
2016-May-23 03:28N 53°29' W 003°22'0 0.0
2016-May-23 02:34N 53°29' W 003°22'0 0.0
2016-May-23 01:31N 53°29' W 003°22'0 0.0
2016-May-23 00:31N 53°29' W 003°22'0 0.0
2016-May-22 23:28N 53°29' W 003°22'3 2.9
2016-May-22 22:33N 53°31' W 003°21'7 7.3
2016-May-22 21:33N 53°32' W 003°08'6 6.3
2016-May-22 20:33N 53°27' W 003°02'1 0.9
2016-May-22 19:33N 53°26' W 003°01'1 0.6
2016-May-22 18:33N 53°26' W 003°00'0 0.0
2016-May-22 17:33N 53°26' W 003°00'0 0.0
2016-May-22 16:33N 53°26' W 003°00'1 0.6
2016-May-22 15:33N 53°26' W 003°01'2 2.0
2016-May-22 14:33N 53°24' W 003°00'2 1.9
2016-May-22 13:33N 53°26' W 003°01'4 4.4
2016-May-22 12:33N 53°30' W 003°05'7 7.1
2016-May-22 11:33N 53°31' W 003°17'4 4.1
2016-May-22 10:33N 53°29' W 003°22'0 0.0
2016-May-22 09:33N 53°29' W 003°22'0 0.0
2016-May-22 08:33N 53°29' W 003°22'0 0.0
2016-May-22 07:33N 53°29' W 003°22'0 0.3
2016-May-22 06:31N 53°29' W 003°22'0 0.0
2016-May-22 05:28N 53°29' W 003°22'0 0.1
2016-May-22 04:31N 53°29' W 003°22'0 0.0
2016-May-22 03:31N 53°29' W 003°22'0 0.0
2016-May-22 02:31N 53°29' W 003°22'0 0.0
2016-May-22 01:31N 53°29' W 003°22'0 0.0
2016-May-22 00:31N 53°29' W 003°22'0 0.0
2016-May-21 23:28N 53°29' W 003°22'0 0.0
2016-May-21 22:28N 53°29' W 003°22'0 0.0
2016-May-21 21:28N 53°29' W 003°22'0 0.0
2016-May-21 20:31N 53°29' W 003°22'0 0.0
2016-May-21 19:31N 53°29' W 003°22'2 1.7
2016-May-21 18:33N 53°30' W 003°22'7 6.8
2016-May-21 17:33N 53°32' W 003°11'8 7.6
2016-May-21 16:33N 53°27' W 003°01'0 0.2
2016-May-21 15:33N 53°27' W 003°01'1 1.1
2016-May-21 14:33N 53°26' W 003°00'0 0.0
2016-May-21 13:33N 53°26' W 003°00'0 0.0
2016-May-21 12:33N 53°26' W 003°00'0 0.0
2016-May-21 11:33N 53°26' W 003°00'0 0.0
2016-May-21 10:33N 53°26' W 003°00'0 0.1
2016-May-21 09:33N 53°26' W 003°00'0 0.0
2016-May-21 08:33N 53°26' W 003°00'0 0.0
2016-May-21 07:33N 53°26' W 003°00'0 0.0
2016-May-21 06:33N 53°26' W 003°00'0 0.0
2016-May-21 05:33N 53°26' W 003°00'0 0.0
2016-May-21 04:33N 53°26' W 003°00'0 0.0
2016-May-21 03:33N 53°26' W 003°00'0 0.0
2016-May-21 02:33N 53°26' W 003°00'0 0.0
2016-May-21 01:33N 53°26' W 003°00'0 0.0
2016-May-21 00:33N 53°26' W 003°00'0 0.0
2016-May-20 23:33N 53°26' W 003°00'0 0.0
2016-May-20 22:33N 53°26' W 003°00'0 0.0
2016-May-20 21:33N 53°26' W 003°00'0 0.0
2016-May-20 20:33N 53°26' W 003°00'1 0.6
2016-May-20 19:33N 53°26' W 003°00'1 0.7
2016-May-20 18:33N 53°26' W 003°01'1 1.3
2016-May-20 17:33N 53°24' W 003°00'0 0.0
2016-May-20 16:33N 53°24' W 003°00'0 0.0
2016-May-20 15:33N 53°24' W 003°00'5 5.1
2016-May-20 14:33N 53°29' W 003°05'5 5.4
2016-May-20 13:33N 53°31' W 003°13'6 6.0
2016-May-20 12:33N 53°29' W 003°22'1 0.8
2016-May-20 11:31N 53°29' W 003°22'0 0.0
2016-May-20 10:31N 53°29' W 003°22'0 0.0
2016-May-20 09:31N 53°29' W 003°22'0 0.0
2016-May-20 08:31N 53°29' W 003°22'0 0.0
2016-May-20 07:31N 53°29' W 003°22'0 0.0
2016-May-20 06:31N 53°29' W 003°22'0 0.0
2016-May-20 05:31N 53°29' W 003°22'0 0.0
2016-May-20 04:31N 53°29' W 003°22'0 0.0
2016-May-20 03:31N 53°29' W 003°22'0 0.0
2016-May-20 02:31N 53°29' W 003°22'0 0.0
2016-May-20 01:31N 53°29' W 003°22'0 0.0
2016-May-20 00:31N 53°29' W 003°22'0 0.0
2016-May-19 23:31N 53°29' W 003°22'0 0.0
2016-May-19 22:28N 53°29' W 003°22'0 0.0
2016-May-19 21:28N 53°29' W 003°22'0 0.0
2016-May-19 20:28N 53°29' W 003°22'0 0.0
2016-May-19 19:31N 53°29' W 003°22'0 0.0
2016-May-19 18:34N 53°29' W 003°22'0 0.3
2016-May-19 17:33N 53°29' W 003°22'0 0.0
2016-May-19 16:33N 53°29' W 003°22'0 0.0
2016-May-19 15:33N 53°29' W 003°22'0 0.0
2016-May-19 14:33N 53°29' W 003°22'0 0.0
2016-May-19 13:33N 53°29' W 003°22'2 2.1
2016-May-19 12:33N 53°30' W 003°20'8 8.0
2016-May-19 11:33N 53°31' W 003°07'8 7.4
2016-May-19 10:31N 53°24' W 003°00'0 0.0
2016-May-19 09:31N 53°24' W 003°00'1 1.4
2016-May-19 08:33N 53°23' W 003°00'0 0.1
2016-May-19 07:31N 53°23' W 003°01'0 0.0
2016-May-19 06:31N 53°23' W 003°01'0 0.0
2016-May-19 05:31N 53°23' W 003°01'0 0.0
2016-May-19 04:31N 53°23' W 003°01'0 0.0
2016-May-19 03:31N 53°23' W 003°01'0 0.0
2016-May-19 02:25N 53°23' W 003°01'0 0.0
2016-May-19 01:31N 53°23' W 003°01'0 0.0
2016-May-19 00:31N 53°23' W 003°01'0 0.0
2016-May-18 23:31N 53°23' W 003°01'0 0.0
2016-May-18 22:25N 53°23' W 003°01'0 0.0
2016-May-18 21:31N 53°23' W 003°01'0 0.0
2016-May-18 20:28N 53°23' W 003°01'0 0.0
2016-May-18 19:22N 53°23' W 003°01'0 0.0
2016-May-18 18:31N 53°23' W 003°01'0 0.0
2016-May-18 17:28N 53°23' W 003°01'0 0.0
2016-May-18 16:31N 53°23' W 003°01'0 0.0
2016-May-18 15:31N 53°23' W 003°01'0 0.0
2016-May-18 14:28N 53°23' W 003°01'0 0.0
2016-May-18 13:31N 53°23' W 003°01'0 0.0
2016-May-18 12:31N 53°23' W 003°01'0 0.0
2016-May-18 11:31N 53°23' W 003°01'0 0.0
2016-May-18 10:31N 53°23' W 003°01'0 0.0
2016-May-18 09:28N 53°23' W 003°01'0 0.0
2016-May-18 08:31N 53°23' W 003°01'0 0.0
2016-May-18 07:31N 53°23' W 003°01'0 0.0
2016-May-18 06:31N 53°23' W 003°01'0 0.0
2016-May-18 05:31N 53°23' W 003°01'0 0.0
2016-May-18 04:31N 53°23' W 003°01'0 0.0
2016-May-18 03:31N 53°23' W 003°01'0 0.0
2016-May-18 02:31N 53°23' W 003°01'0 0.0
2016-May-18 01:31N 53°23' W 003°01'0 0.0
2016-May-18 00:22N 53°23' W 003°01'0 0.0
2016-May-17 23:28N 53°23' W 003°01'0 0.0
2016-May-17 22:31N 53°23' W 003°01'0 0.0
2016-May-17 21:28N 53°23' W 003°01'0 0.0
2016-May-17 20:28N 53°23' W 003°01'0 0.0
2016-May-17 19:28N 53°23' W 003°01'0 0.0
2016-May-17 18:31N 53°23' W 003°01'0 0.0
2016-May-17 17:31N 53°23' W 003°01'0 0.0
2016-May-17 16:31N 53°23' W 003°01'0 0.1
2016-May-17 15:31N 53°23' W 003°00'0 0.0
2016-May-17 14:31N 53°23' W 003°00'0 0.0
2016-May-17 13:34N 53°23' W 003°00'0 0.0
2016-May-17 12:34N 53°23' W 003°00'0 0.0
2016-May-17 11:34N 53°23' W 003°00'0 0.0
2016-May-17 10:33N 53°23' W 003°00'0 0.0
2016-May-17 09:33N 53°23' W 003°00'0 0.0
2016-May-17 08:33N 53°23' W 003°00'0 0.0
2016-May-17 07:33N 53°23' W 003°00'0 0.0
2016-May-17 06:31N 53°23' W 003°00'0 0.0
2016-May-17 05:24N 53°23' W 003°00'0 0.0
2016-May-17 04:34N 53°23' W 003°00'0 0.0
2016-May-17 03:31N 53°23' W 003°00'0 0.0
2016-May-17 02:30N 53°23' W 003°00'0 0.0
2016-May-17 01:33N 53°23' W 003°01'0 0.0
2016-May-17 00:33N 53°23' W 003°00'0 0.0
2016-May-16 23:30N 53°23' W 003°00'0 0.0
2016-May-16 22:33N 53°23' W 003°00'0 0.0
2016-May-16 21:33N 53°23' W 003°00'0 0.0
2016-May-16 20:33N 53°23' W 003°00'0 0.0
2016-May-16 19:18N 53°23' W 003°00'0 0.0
2016-May-16 18:33N 53°23' W 003°00'0 0.0
2016-May-16 17:30N 53°23' W 003°00'0 0.0
2016-May-16 16:33N 53°23' W 003°00'0 0.0
2016-May-16 15:33N 53°23' W 003°00'0 0.0
2016-May-16 14:33N 53°23' W 003°00'0 0.0
2016-May-16 13:33N 53°23' W 003°00'0 0.0
2016-May-16 12:33N 53°23' W 003°00'0 0.0
2016-May-16 11:33N 53°23' W 003°00'0 0.0
2016-May-16 10:33N 53°23' W 003°00'0 0.0
2016-May-16 09:33N 53°23' W 003°00'0 0.0
2016-May-16 08:33N 53°23' W 003°00'0 0.0
2016-May-16 07:30N 53°23' W 003°00'0 0.0
2016-May-16 06:30N 53°23' W 003°00'0 0.0
2016-May-16 05:27N 53°23' W 003°00'0 0.0
2016-May-16 04:33N 53°23' W 003°00'0 0.0
2016-May-16 03:33N 53°23' W 003°00'0 0.0
2016-May-16 02:33N 53°23' W 003°00'0 0.0
2016-May-16 01:33N 53°23' W 003°00'0 0.0
2016-May-16 00:30N 53°23' W 003°00'0 0.0
2016-May-15 23:33N 53°23' W 003°00'0 0.0
2016-May-15 22:33N 53°23' W 003°00'0 0.0
2016-May-15 21:33N 53°23' W 003°00'0 0.0
2016-May-15 20:30N 53°23' W 003°00'0 0.0
2016-May-15 19:33N 53°23' W 003°00'0 0.0
2016-May-15 18:33N 53°23' W 003°00'0 0.0
2016-May-15 17:33N 53°23' W 003°00'0 0.0
2016-May-15 16:33N 53°23' W 003°00'0 0.0
2016-May-15 15:33N 53°23' W 003°00'0 0.0
2016-May-15 14:33N 53°23' W 003°00'0 0.0
2016-May-15 13:33N 53°23' W 003°00'0 0.0
2016-May-15 12:33N 53°23' W 003°00'0 0.0
2016-May-15 11:33N 53°23' W 003°00'0 0.0
2016-May-15 10:33N 53°23' W 003°00'0 0.0
2016-May-15 09:33N 53°23' W 003°00'0 0.0
2016-May-15 08:33N 53°23' W 003°00'0 0.0
2016-May-15 07:34N 53°23' W 003°00'0 0.0
2016-May-15 06:33N 53°23' W 003°00'0 0.0
2016-May-15 05:33N 53°23' W 003°00'0 0.0
2016-May-15 04:34N 53°23' W 003°00'0 0.0
2016-May-15 03:33N 53°23' W 003°00'0 0.0
2016-May-15 02:33N 53°23' W 003°01'  

Dump ship's entire track history